Time;durP1;ratioP1;P1;durP2;ratioP2;P2;SDS_P1;SDS_P2;PMS_P1;PMS_P2;Temp;Humidity;BMP_temperature;BMP_pressure;BME280_temperature;BME280_humidity;BME280_pressure;Samples;Min_cycle;Max_cycle;Signal;HPM_P1;HPM_P2
2022/12/07 00:01:40;;;;;;;7.28;1.30;;;;;;;;;;4985163;28;20026;-73
2022/12/07 00:04:07;;;;;;;5.40;1.50;;;;;;;;;;4978098;28;20038;-72
2022/12/07 00:06:40;;;;;;;8.90;1.77;;;;;;;;;;4982004;28;20030;-72
2022/12/07 00:09:06;;;;;;;8.90;1.80;;;;;;;;;;4983863;28;20022;-73
2022/12/07 00:11:32;;;;;;;11.30;1.23;;;;;;;;;;4981801;28;20451;-73
2022/12/07 00:14:00;;;;;;;13.57;1.85;;;;;;;;;;4985803;28;20069;-73
2022/12/07 00:16:28;;;;;;;10.50;2.03;;;;;;;;;;4986639;28;20452;-72
2022/12/07 00:18:54;;;;;;;11.27;1.67;;;;;;;;;;4984331;28;20027;-72
2022/12/07 00:21:25;;;;;;;10.15;1.80;;;;;;;;;;4980409;28;20122;-72
2022/12/07 00:23:52;;;;;;;20.63;2.15;;;;;;;;;;4981494;28;20031;-73
2022/12/07 00:26:23;;;;;;;7.72;1.63;;;;;;;;;;4983432;28;20532;-71
2022/12/07 00:28:50;;;;;;;11.23;1.95;;;;;;;;;;4984387;28;20065;-73
2022/12/07 00:31:17;;;;;;;11.32;1.77;;;;;;;;;;4983587;28;20061;-73
2022/12/07 00:33:44;;;;;;;13.20;1.25;;;;;;;;;;4982799;28;20044;-72
2022/12/07 00:36:11;;;;;;;9.25;1.55;;;;;;;;;;4984817;28;20053;-71
2022/12/07 00:38:38;;;;;;;16.95;2.85;;;;;;;;;;4981047;28;20022;-71
2022/12/07 00:41:05;;;;;;;11.65;1.60;;;;;;;;;;4969818;28;20113;-72
2022/12/07 00:43:31;;;;;;;10.70;1.35;;;;;;;;;;4979696;28;20030;-72
2022/12/07 00:45:58;;;;;;;6.63;1.30;;;;;;;;;;4986424;28;20487;-72
2022/12/07 00:48:24;;;;;;;12.50;1.40;;;;;;;;;;4969120;28;20037;-71
2022/12/07 00:50:50;;;;;;;8.38;1.45;;;;;;;;;;4983308;28;20034;-71
2022/12/07 00:53:17;;;;;;;12.88;1.70;;;;;;;;;;4982182;28;20042;-71
2022/12/07 00:55:43;;;;;;;6.38;1.10;;;;;;;;;;4985572;28;20037;-71
2022/12/07 00:58:09;;;;;;;8.38;1.25;;;;;;;;;;4985167;28;20045;-72
2022/12/07 01:00:36;;;;;;;7.75;1.35;;;;;;;;;;4983056;28;21991;-72
2022/12/07 01:03:02;;;;;;;12.73;1.48;;;;;;;;;;4983238;28;20077;-72
2022/12/07 01:05:28;;;;;;;11.30;2.65;;;;;;;;;;4979620;28;20035;-72
2022/12/07 01:07:55;;;;;;;5.57;0.90;;;;;;;;;;4991479;28;20041;-72
2022/12/07 01:10:21;;;;;;;3.65;0.88;;;;;;;;;;4981897;28;20037;-72
2022/12/07 01:12:47;;;;;;;12.77;1.25;;;;;;;;;;4984763;28;20042;-71
2022/12/07 01:15:13;;;;;;;13.13;1.60;;;;;;;;;;4983508;28;20029;-71
2022/12/07 01:17:39;;;;;;;7.75;1.17;;;;;;;;;;4989584;28;20030;-72
2022/12/07 01:20:05;;;;;;;12.15;1.40;;;;;;;;;;4984774;28;20492;-72
2022/12/07 01:22:31;;;;;;;9.95;0.95;;;;;;;;;;4987528;28;20089;-71
2022/12/07 01:24:57;;;;;;;7.18;0.70;;;;;;;;;;4984725;28;20038;-71
2022/12/07 01:27:23;;;;;;;9.57;1.52;;;;;;;;;;4986032;28;20039;-71
2022/12/07 01:29:51;;;;;;;3.90;0.90;;;;;;;;;;4984659;28;20034;-71
2022/12/07 01:32:17;;;;;;;10.52;1.33;;;;;;;;;;4984189;28;20015;-71
2022/12/07 01:34:43;;;;;;;9.35;1.00;;;;;;;;;;4967578;28;20172;-71
2022/12/07 01:37:09;;;;;;;6.38;1.27;;;;;;;;;;4983842;28;20069;-71
2022/12/07 01:39:35;;;;;;;10.77;1.05;;;;;;;;;;4985966;28;20034;-71
2022/12/07 01:42:01;;;;;;;15.25;2.33;;;;;;;;;;4970288;28;20034;-71
2022/12/07 01:44:32;;;;;;;5.60;0.85;;;;;;;;;;4984956;28;20062;-70
2022/12/07 01:47:02;;;;;;;7.32;0.70;;;;;;;;;;4985663;28;20763;-71
2022/12/07 01:49:32;;;;;;;7.78;1.13;;;;;;;;;;4984776;28;20539;-71
2022/12/07 01:52:03;;;;;;;11.00;1.73;;;;;;;;;;4985419;28;20173;-71
2022/12/07 01:54:29;;;;;;;15.43;1.65;;;;;;;;;;4981031;28;20031;-71
2022/12/07 01:56:57;;;;;;;11.75;0.73;;;;;;;;;;4985177;28;20033;-72
2022/12/07 01:59:25;;;;;;;10.90;1.35;;;;;;;;;;4983544;28;20588;-72
2022/12/07 02:01:52;;;;;;;3.70;0.60;;;;;;;;;;4987905;28;20042;-71
2022/12/07 02:04:18;;;;;;;8.27;0.88;;;;;;;;;;4984494;28;20255;-72
2022/12/07 02:06:45;;;;;;;9.70;2.15;;;;;;;;;;4967148;28;20372;-72
2022/12/07 02:09:12;;;;;;;7.85;0.90;;;;;;;;;;4985860;28;20041;-72
2022/12/07 02:11:38;;;;;;;5.78;0.90;;;;;;;;;;4966711;28;20072;-71
2022/12/07 02:14:05;;;;;;;2.45;0.60;;;;;;;;;;4967659;28;20030;-71
2022/12/07 02:16:35;;;;;;;12.50;1.40;;;;;;;;;;4982749;28;20031;-71
2022/12/07 02:19:30;;;;;;;9.10;1.45;;;;;;;;;;4987787;28;20030;-71
2022/12/07 02:22:05;;;;;;;5.30;0.80;;;;;;;;;;4985906;28;20030;-71
2022/12/07 02:24:34;;;;;;;7.28;1.15;;;;;;;;;;4988185;28;20072;-70
2022/12/07 02:27:00;;;;;;;10.25;0.93;;;;;;;;;;4968306;28;20026;-71
2022/12/07 02:29:50;;;;;;;2.92;0.77;;;;;;;;;;4981582;28;20094;-70
2022/12/07 02:32:21;;;;;;;10.73;2.22;;;;;;;;;;4956962;28;20133;-70
2022/12/07 02:34:50;;;;;;;6.23;0.83;;;;;;;;;;4984465;28;20605;-71
2022/12/07 02:37:26;;;;;;;5.32;1.05;;;;;;;;;;4983783;28;20062;-71
2022/12/07 02:39:55;;;;;;;8.13;1.10;;;;;;;;;;4983198;28;20081;-72
2022/12/07 02:42:25;;;;;;;8.13;1.13;;;;;;;;;;4978951;28;20631;-71
2022/12/07 02:44:52;;;;;;;7.20;1.98;;;;;;;;;;4969252;28;20050;-72
2022/12/07 02:47:20;;;;;;;9.40;1.40;;;;;;;;;;4983948;28;20023;-72
2022/12/07 02:49:46;;;;;;;6.85;0.90;;;;;;;;;;4986276;28;20038;-72
2022/12/07 02:52:12;;;;;;;5.50;1.02;;;;;;;;;;4985539;28;20045;-72
2022/12/07 02:54:38;;;;;;;11.80;2.53;;;;;;;;;;4986452;28;20073;-72
2022/12/07 02:57:15;;;;;;;8.20;0.98;;;;;;;;;;4967600;28;20030;-72
2022/12/07 02:59:41;;;;;;;9.93;1.05;;;;;;;;;;4967945;28;20076;-72
2022/12/07 03:02:27;;;;;;;7.05;1.55;;;;;;;;;;4987038;28;20034;-72
2022/12/07 03:05:06;;;;;;;11.98;1.98;;;;;;;;;;4970500;28;20377;-72
2022/12/07 03:07:35;;;;;;;10.30;1.10;;;;;;;;;;4983967;28;20029;-73
2022/12/07 03:10:11;;;;;;;13.50;1.17;;;;;;;;;;4983933;28;20088;-73
2022/12/07 03:13:03;;;;;;;7.80;1.35;;;;;;;;;;4969275;28;20038;-72
2022/12/07 03:15:36;;;;;;;9.73;1.35;;;;;;;;;;4980432;28;20046;-72
2022/12/07 03:18:02;;;;;;;;;;;;;;;;;;4981777;28;20109;-72
2022/12/07 03:20:28;;;;;;;8.27;1.13;;;;;;;;;;4985242;28;20450;-72
2022/12/07 03:22:55;;;;;;;4.97;1.15;;;;;;;;;;4956380;28;20041;-72
2022/12/07 03:25:21;;;;;;;10.32;1.33;;;;;;;;;;4984196;28;20112;-72
2022/12/07 03:27:55;;;;;;;9.02;0.88;;;;;;;;;;4986095;28;20655;-72
2022/12/07 03:30:27;;;;;;;7.78;1.15;;;;;;;;;;4967040;28;20106;-72
2022/12/07 03:32:56;;;;;;;3.20;0.80;;;;;;;;;;4987345;28;20038;-72
2022/12/07 03:35:43;;;;;;;6.50;0.93;;;;;;;;;;4980475;28;20313;-72
2022/12/07 03:38:16;;;;;;;13.13;1.33;;;;;;;;;;4967944;28;20470;-72
2022/12/07 03:40:45;;;;;;;7.05;1.48;;;;;;;;;;4984611;28;20034;-72
2022/12/07 03:43:12;;;;;;;7.35;0.95;;;;;;;;;;4983464;28;20030;-72
2022/12/07 03:45:53;;;;;;;5.47;1.02;;;;;;;;;;4965174;28;20065;-72
2022/12/07 03:48:28;;;;;;;9.07;0.82;;;;;;;;;;4985793;28;20060;-72
2022/12/07 03:51:03;;;;;;;5.80;0.95;;;;;;;;;;4984232;28;20038;-72
2022/12/07 03:53:34;;;;;;;6.60;1.00;;;;;;;;;;4985209;28;20488;-72
2022/12/07 03:56:00;;;;;;;5.47;1.00;;;;;;;;;;4982527;28;20057;-72
2022/12/07 03:58:27;;;;;;;4.82;0.80;;;;;;;;;;4984990;28;20057;-72
2022/12/07 04:00:53;;;;;;;10.43;1.60;;;;;;;;;;4983570;28;20038;-72
2022/12/07 04:03:19;;;;;;;6.57;0.93;;;;;;;;;;4970958;28;20340;-72
2022/12/07 04:05:45;;;;;;;6.72;1.10;;;;;;;;;;4982382;28;20026;-73
2022/12/07 04:08:11;;;;;;;12.88;1.20;;;;;;;;;;4964043;28;20081;-72
2022/12/07 04:10:37;;;;;;;4.18;0.93;;;;;;;;;;4979884;28;20133;-72
2022/12/07 04:13:04;;;;;;;12.90;1.70;;;;;;;;;;4985291;28;20112;-72
2022/12/07 04:15:30;;;;;;;7.50;1.00;;;;;;;;;;4982742;28;20030;-72
2022/12/07 04:17:56;;;;;;;6.97;1.27;;;;;;;;;;4986536;28;20528;-72
2022/12/07 04:20:22;;;;;;;7.45;0.80;;;;;;;;;;4979217;28;20069;-72
2022/12/07 04:22:48;;;;;;;6.85;0.98;;;;;;;;;;4984367;28;20038;-72
2022/12/07 04:25:14;;;;;;;9.55;2.08;;;;;;;;;;4983151;28;20041;-72
2022/12/07 04:27:40;;;;;;;8.75;1.75;;;;;;;;;;4987293;28;20580;-72
2022/12/07 04:30:07;;;;;;;12.88;1.42;;;;;;;;;;4983258;28;20455;-72
2022/12/07 04:32:33;;;;;;;6.65;1.00;;;;;;;;;;4984415;28;20097;-70
2022/12/07 04:34:59;;;;;;;9.40;1.67;;;;;;;;;;4984304;28;20372;-73
2022/12/07 04:37:25;;;;;;;11.23;1.77;;;;;;;;;;4986967;28;20018;-72
2022/12/07 04:39:51;;;;;;;7.63;1.65;;;;;;;;;;4983742;28;20146;-73
2022/12/07 04:42:17;;;;;;;10.23;1.42;;;;;;;;;;4979570;28;20161;-72
2022/12/07 04:44:43;;;;;;;9.77;1.20;;;;;;;;;;4951944;28;20062;-72
2022/12/07 04:47:09;;;;;;;5.32;1.00;;;;;;;;;;4984038;28;20031;-72
2022/12/07 04:49:35;;;;;;;14.40;1.05;;;;;;;;;;4985471;28;20349;-72
2022/12/07 04:52:01;;;;;;;5.90;0.88;;;;;;;;;;4986221;28;20050;-73
2022/12/07 04:54:27;;;;;;;4.15;1.20;;;;;;;;;;4987031;28;20113;-73
2022/12/07 04:56:53;;;;;;;8.02;0.88;;;;;;;;;;4985622;28;20047;-72
2022/12/07 04:59:19;;;;;;;11.48;1.77;;;;;;;;;;4987772;28;20046;-72
2022/12/07 05:01:45;;;;;;;15.80;2.20;;;;;;;;;;4987062;28;20038;-73
2022/12/07 05:04:11;;;;;;;10.23;1.17;;;;;;;;;;4970152;28;20038;-72
2022/12/07 05:06:37;;;;;;;11.13;1.45;;;;;;;;;;4982215;28;20100;-73
2022/12/07 05:09:04;;;;;;;8.35;0.90;;;;;;;;;;4987084;28;20023;-73
2022/12/07 05:11:39;;;;;;;10.63;1.00;;;;;;;;;;4987333;28;20058;-73
2022/12/07 05:14:15;;;;;;;7.25;0.90;;;;;;;;;;4986180;28;20379;-73
2022/12/07 05:16:41;;;;;;;6.10;1.33;;;;;;;;;;4977473;28;20026;-73
2022/12/07 05:19:08;;;;;;;10.35;0.80;;;;;;;;;;4984693;28;20121;-70
2022/12/07 05:21:34;;;;;;;3.33;0.63;;;;;;;;;;4967733;28;20030;-71
2022/12/07 05:24:00;;;;;;;8.75;1.42;;;;;;;;;;4978786;28;20037;-71
2022/12/07 05:26:27;;;;;;;8.02;1.45;;;;;;;;;;4978726;28;20026;-71
2022/12/07 05:28:53;;;;;;;8.40;1.13;;;;;;;;;;4976634;28;20286;-73
2022/12/07 05:31:19;;;;;;;10.65;2.60;;;;;;;;;;4965714;28;20045;-72
2022/12/07 05:33:45;;;;;;;8.43;1.40;;;;;;;;;;4984757;28;20482;-72
2022/12/07 05:36:12;;;;;;;11.68;2.70;;;;;;;;;;4991882;28;20041;-71
2022/12/07 05:38:38;;;;;;;8.52;2.10;;;;;;;;;;4985988;28;20471;-71
2022/12/07 05:41:05;;;;;;;7.90;1.33;;;;;;;;;;4998419;28;20042;-71
2022/12/07 05:43:31;;;;;;;12.00;1.58;;;;;;;;;;4995730;28;20119;-71
2022/12/07 05:45:58;;;;;;;10.32;2.50;;;;;;;;;;5001588;28;20038;-71
2022/12/07 05:48:24;;;;;;;10.90;1.42;;;;;;;;;;4994836;28;20023;-73
2022/12/07 05:50:50;;;;;;;15.15;1.75;;;;;;;;;;4993172;28;20435;-71
2022/12/07 05:53:16;;;;;;;10.07;1.90;;;;;;;;;;4995538;28;20019;-72
2022/12/07 05:55:43;;;;;;;8.60;1.42;;;;;;;;;;4991071;28;20452;-70
2022/12/07 06:00:57;;;;;;;13.05;1.55;;;;;;;;;;4986313;28;20038;-73
2022/12/07 06:03:23;;;;;;;11.20;1.83;;;;;;;;;;4989745;28;20038;-73
2022/12/07 06:05:49;;;;;;;9.80;0.98;;;;;;;;;;4994096;28;20034;-73
2022/12/07 06:08:15;;;;;;;11.30;1.50;;;;;;;;;;4982424;28;20035;-72
2022/12/07 06:10:41;;;;;;;120.57;56.95;;;;;;;;;;4973896;28;20046;-75
2022/12/07 06:13:08;;;;;;;17.42;4.15;;;;;;;;;;4978595;28;20553;-77
2022/12/07 06:15:36;;;;;;;10.40;2.78;;;;;;;;;;4981723;28;20066;-70
2022/12/07 06:18:02;;;;;;;8.10;3.42;;;;;;;;;;4980713;28;20412;-72
2022/12/07 06:20:28;;;;;;;7.22;1.50;;;;;;;;;;4979589;28;20096;-72
2022/12/07 06:22:54;;;;;;;12.15;1.20;;;;;;;;;;4990083;28;20062;-72
2022/12/07 06:25:20;;;;;;;14.18;1.30;;;;;;;;;;4988377;28;20042;-69
2022/12/07 06:27:46;;;;;;;9.88;1.70;;;;;;;;;;4996947;28;20034;-73
2022/12/07 06:30:13;;;;;;;13.38;1.48;;;;;;;;;;4965283;28;20234;-72
2022/12/07 06:32:39;;;;;;;9.82;1.98;;;;;;;;;;4983124;28;20029;-72
2022/12/07 06:35:06;;;;;;;10.73;2.22;;;;;;;;;;4982584;28;20046;-71
2022/12/07 06:37:32;;;;;;;15.13;1.50;;;;;;;;;;4974791;28;20176;-71
2022/12/07 06:39:58;;;;;;;8.82;1.35;;;;;;;;;;4975790;28;20479;-72
2022/12/07 06:42:24;;;;;;;16.33;2.47;;;;;;;;;;4975074;28;20030;-72
2022/12/07 06:44:50;;;;;;;11.25;1.08;;;;;;;;;;4976124;28;20026;-72
2022/12/07 06:47:16;;;;;;;9.13;2.20;;;;;;;;;;4976678;28;20038;-72
2022/12/07 06:49:42;;;;;;;5.63;1.17;;;;;;;;;;4975075;28;21222;-72
2022/12/07 06:52:08;;;;;;;9.00;1.60;;;;;;;;;;4978195;28;20344;-73
2022/12/07 06:54:34;;;;;;;8.75;1.05;;;;;;;;;;4964178;28;20490;-76
2022/12/07 06:57:00;;;;;;;8.25;1.40;;;;;;;;;;4986110;28;20506;-71
2022/12/07 06:59:26;;;;;;;8.48;1.02;;;;;;;;;;4983649;28;20030;-74
2022/12/07 07:01:52;;;;;;;5.40;1.48;;;;;;;;;;4978306;28;20451;-72
2022/12/07 07:04:18;;;;;;;9.07;2.25;;;;;;;;;;4979319;28;20663;-75
2022/12/07 07:06:44;;;;;;;11.30;2.10;;;;;;;;;;4963233;28;20026;-73
2022/12/07 07:09:10;;;;;;;16.08;2.03;;;;;;;;;;4980727;28;20411;-72
2022/12/07 07:11:36;;;;;;;14.38;4.18;;;;;;;;;;4975244;28;20470;-72
2022/12/07 07:14:02;;;;;;;11.88;2.78;;;;;;;;;;4974358;28;20047;-72
2022/12/07 07:16:30;;;;;;;4.75;1.10;;;;;;;;;;4976922;28;20031;-71
2022/12/07 07:18:57;;;;;;;15.80;1.63;;;;;;;;;;4973102;28;20039;-72
2022/12/07 07:21:23;;;;;;;17.77;3.15;;;;;;;;;;4979231;28;20030;-72
2022/12/07 07:23:49;;;;;;;11.20;2.28;;;;;;;;;;4970360;28;20042;-72
2022/12/07 07:26:15;;;;;;;19.88;2.90;;;;;;;;;;4959458;28;20031;-71
2022/12/07 07:28:41;;;;;;;12.05;1.95;;;;;;;;;;4977070;28;20054;-73
2022/12/07 07:31:07;;;;;;;10.00;2.00;;;;;;;;;;4979482;28;20502;-71
2022/12/07 07:33:33;;;;;;;9.10;1.88;;;;;;;;;;4974256;28;20035;-71
2022/12/07 07:35:59;;;;;;;9.13;2.35;;;;;;;;;;4976874;28;20372;-72
2022/12/07 07:38:25;;;;;;;8.55;1.33;;;;;;;;;;4975208;28;20478;-71
2022/12/07 07:40:51;;;;;;;9.80;1.70;;;;;;;;;;4977387;28;20038;-72
2022/12/07 07:43:17;;;;;;;8.13;1.70;;;;;;;;;;4975197;28;20030;-71
2022/12/07 07:45:44;;;;;;;15.55;1.58;;;;;;;;;;4969279;28;20042;-73
2022/12/07 07:48:10;;;;;;;8.25;1.77;;;;;;;;;;4979010;28;20035;-73
2022/12/07 07:50:37;;;;;;;7.90;2.03;;;;;;;;;;4961480;28;20042;-71
2022/12/07 07:53:03;;;;;;;8.00;1.73;;;;;;;;;;4979016;28;20030;-71
2022/12/07 07:55:30;;;;;;;16.98;2.33;;;;;;;;;;4980476;28;20042;-74
2022/12/07 07:57:56;;;;;;;8.60;2.42;;;;;;;;;;4973688;28;20051;-72
2022/12/07 08:00:22;;;;;;;14.05;1.80;;;;;;;;;;4963633;28;20081;-72
2022/12/07 08:02:48;;;;;;;16.73;2.10;;;;;;;;;;4977273;28;20088;-73
2022/12/07 08:05:15;;;;;;;14.05;2.28;;;;;;;;;;4975741;28;20479;-72
2022/12/07 08:07:41;;;;;;;16.42;1.63;;;;;;;;;;4969990;28;20034;-74
2022/12/07 08:10:07;;;;;;;10.02;2.28;;;;;;;;;;4972149;28;20515;-73
2022/12/07 08:12:36;;;;;;;12.13;1.60;;;;;;;;;;4972245;28;21136;-73
2022/12/07 08:15:02;;;;;;;15.50;1.67;;;;;;;;;;4974521;28;20030;-73
2022/12/07 08:17:28;;;;;;;14.05;1.70;;;;;;;;;;4972783;28;20543;-70
2022/12/07 08:19:54;;;;;;;9.98;1.90;;;;;;;;;;4969394;28;20455;-73
2022/12/07 08:22:20;;;;;;;13.13;1.98;;;;;;;;;;4996417;28;20510;-74
2022/12/07 08:24:46;;;;;;;18.40;3.20;;;;;;;;;;4989660;28;20030;-71
2022/12/07 08:27:12;;;;;;;10.20;3.13;;;;;;;;;;4981764;28;20100;-73
2022/12/07 08:29:38;;;;;;;8.93;2.55;;;;;;;;;;4985745;28;20483;-73
2022/12/07 08:32:05;;;;;;;16.60;3.10;;;;;;;;;;4974861;28;20490;-73
2022/12/07 08:34:31;;;;;;;10.50;2.67;;;;;;;;;;4985723;28;20471;-73
2022/12/07 08:36:57;;;;;;;12.27;2.38;;;;;;;;;;4980425;28;20553;-72
2022/12/07 08:39:23;;;;;;;10.30;1.98;;;;;;;;;;4972937;28;20061;-74
2022/12/07 08:41:49;;;;;;;7.32;1.83;;;;;;;;;;4980893;28;20069;-73
2022/12/07 08:44:15;;;;;;;12.45;1.77;;;;;;;;;;4968185;28;20031;-73
2022/12/07 08:46:53;;;;;;;11.23;2.63;;;;;;;;;;4975748;28;20054;-73
2022/12/07 08:49:28;;;;;;;14.25;3.33;;;;;;;;;;4965824;28;20033;-73
2022/12/07 08:51:55;;;;;;;13.23;1.65;;;;;;;;;;4977079;28;20063;-73
2022/12/07 08:54:22;;;;;;;18.55;1.90;;;;;;;;;;4977798;28;20043;-74
2022/12/07 08:56:48;;;;;;;12.57;2.05;;;;;;;;;;4975523;28;20022;-75
2022/12/07 08:59:15;;;;;;;11.00;2.15;;;;;;;;;;4974642;28;21211;-72
2022/12/07 09:01:42;;;;;;;10.68;1.45;;;;;;;;;;4975275;28;20042;-73
2022/12/07 09:04:08;;;;;;;11.07;1.45;;;;;;;;;;4939082;28;20054;-73
2022/12/07 09:06:34;;;;;;;12.73;1.63;;;;;;;;;;4954251;28;20043;-71
2022/12/07 09:09:01;;;;;;;16.75;2.83;;;;;;;;;;4973765;28;20030;-71
2022/12/07 09:11:27;;;;;;;8.10;1.55;;;;;;;;;;4974935;28;20062;-73
2022/12/07 09:13:53;;;;;;;6.03;1.50;;;;;;;;;;4981194;28;20118;-73
2022/12/07 09:16:19;;;;;;;13.02;1.50;;;;;;;;;;4974719;28;20110;-72
2022/12/07 09:18:45;;;;;;;11.10;1.50;;;;;;;;;;4959598;28;20034;-73
2022/12/07 09:21:11;;;;;;;8.18;1.58;;;;;;;;;;4972359;28;20053;-73
2022/12/07 09:23:37;;;;;;;10.65;3.25;;;;;;;;;;4978101;28;20082;-74
2022/12/07 09:26:04;;;;;;;8.63;3.22;;;;;;;;;;4959771;28;20181;-73
2022/12/07 09:28:31;;;;;;;12.00;4.40;;;;;;;;;;4958883;28;20505;-74
2022/12/07 09:30:57;;;;;;;12.77;4.75;;;;;;;;;;4976649;28;20039;-74
2022/12/07 09:33:23;;;;;;;13.23;4.07;;;;;;;;;;4975959;28;20038;-72
2022/12/07 09:35:50;;;;;;;12.65;3.45;;;;;;;;;;4974206;28;20057;-73
2022/12/07 09:38:16;;;;;;;17.50;7.00;;;;;;;;;;4982639;28;20034;-75
2022/12/07 09:40:43;;;;;;;17.73;6.03;;;;;;;;;;4987036;28;20041;-77
2022/12/07 09:43:17;;;;;;;9.90;3.58;;;;;;;;;;4984720;28;20185;-72
2022/12/07 09:45:44;;;;;;;13.75;4.10;;;;;;;;;;4990218;28;20399;-70
2022/12/07 09:48:18;;;;;;;7.13;2.70;;;;;;;;;;4987462;28;20030;-72
2022/12/07 09:50:44;;;;;;;16.90;5.47;;;;;;;;;;4998700;28;20034;-71
2022/12/07 09:53:15;;;;;;;13.45;1.65;;;;;;;;;;4992963;28;20386;-70
2022/12/07 09:55:42;;;;;;;10.82;1.50;;;;;;;;;;4992551;28;20480;-71
2022/12/07 09:58:14;;;;;;;7.68;1.55;;;;;;;;;;4990332;28;20027;-71
2022/12/07 10:00:40;;;;;;;;;;;;;;;;;;4996601;28;20053;-72
2022/12/07 10:03:10;;;;;;;7.35;1.35;;;;;;;;;;4991492;28;20378;-71
2022/12/07 10:05:38;;;;;;;8.52;1.23;;;;;;;;;;4991350;28;20022;-72
2022/12/07 10:08:04;;;;;;;13.85;1.38;;;;;;;;;;4985517;28;20114;-71
2022/12/07 10:10:32;;;;;;;14.38;2.63;;;;;;;;;;4988493;28;20053;-70
2022/12/07 10:13:02;;;;;;;7.80;1.00;;;;;;;;;;5005117;28;20065;-73
2022/12/07 10:15:46;;;;;;;4.30;1.05;;;;;;;;;;5012536;28;20541;-71
2022/12/07 10:18:32;;;;;;;8.13;1.38;;;;;;;;;;5013410;28;20029;-71
2022/12/07 10:21:02;;;;;;;6.72;2.20;;;;;;;;;;4999518;28;20043;-71
2022/12/07 10:23:28;;;;;;;6.47;1.35;;;;;;;;;;5015595;28;20037;-71
2022/12/07 10:25:54;;;;;;;9.52;1.67;;;;;;;;;;5017018;28;20030;-71
2022/12/07 10:28:21;;;;;;;9.45;1.83;;;;;;;;;;5007131;28;20042;-71
2022/12/07 10:30:47;;;;;;;7.15;2.47;;;;;;;;;;5018402;28;20564;-72
2022/12/07 10:33:32;;;;;;;10.07;2.60;;;;;;;;;;5017615;28;20160;-71
2022/12/07 10:36:00;;;;;;;9.00;2.75;;;;;;;;;;5022599;28;20026;-71
2022/12/07 10:38:27;;;;;;;6.10;2.20;;;;;;;;;;5017511;28;20830;-70
2022/12/07 10:41:09;;;;;;;9.95;1.92;;;;;;;;;;5016820;28;20497;-70
2022/12/07 10:43:35;;;;;;;9.77;2.27;;;;;;;;;;5021599;28;20037;-71
2022/12/07 10:46:24;;;;;;;9.65;2.08;;;;;;;;;;5016555;28;20284;-72
2022/12/07 10:48:50;;;;;;;11.10;2.05;;;;;;;;;;5002980;28;20045;-71
2022/12/07 10:51:37;;;;;;;6.53;1.45;;;;;;;;;;5015759;28;20049;-71
2022/12/07 10:54:35;;;;;;;7.28;1.50;;;;;;;;;;5018810;28;20091;-71
2022/12/07 10:57:17;;;;;;;5.57;1.13;;;;;;;;;;4985700;28;20115;-71
2022/12/07 10:59:43;;;;;;;5.40;1.20;;;;;;;;;;5023644;28;20029;-72
2022/12/07 11:02:12;;;;;;;6.00;1.17;;;;;;;;;;5022056;28;20041;-71
2022/12/07 11:04:38;;;;;;;4.28;0.88;;;;;;;;;;5004652;28;20037;-72
2022/12/07 11:07:22;;;;;;;3.38;0.88;;;;;;;;;;5001464;28;20034;-71
2022/12/07 11:09:57;;;;;;;6.35;0.93;;;;;;;;;;5001166;28;20391;-72
2022/12/07 11:12:26;;;;;;;5.22;0.47;;;;;;;;;;5000996;28;20057;-71
2022/12/07 11:14:59;;;;;;;4.03;0.85;;;;;;;;;;5003144;28;20549;-71
2022/12/07 11:17:47;;;;;;;3.78;0.80;;;;;;;;;;5018682;28;20038;-71
2022/12/07 11:20:16;;;;;;;3.45;1.00;;;;;;;;;;5007657;28;20049;-71
2022/12/07 11:22:54;;;;;;;6.88;0.98;;;;;;;;;;5008038;28;20057;-72
2022/12/07 11:25:20;;;;;;;4.45;0.70;;;;;;;;;;5001743;28;20033;-73
2022/12/07 11:27:49;;;;;;;29.40;13.65;;;;;;;;;;5002918;28;20104;-72
2022/12/07 11:30:20;;;;;;;5.85;1.50;;;;;;;;;;5007891;28;20019;-71
2022/12/07 11:32:47;;;;;;;3.67;1.60;;;;;;;;;;5008752;28;20041;-74
2022/12/07 11:35:28;;;;;;;4.50;0.75;;;;;;;;;;5000665;28;20022;-71
2022/12/07 11:38:00;;;;;;;6.82;1.13;;;;;;;;;;4999751;28;20030;-72
2022/12/07 11:40:39;;;;;;;5.07;1.17;;;;;;;;;;5000015;28;20033;-71
2022/12/07 11:43:27;;;;;;;7.15;0.90;;;;;;;;;;4994128;28;20474;-70
2022/12/07 11:45:56;;;;;;;8.02;1.58;;;;;;;;;;5007585;28;20069;-70
2022/12/07 11:48:38;;;;;;;5.90;1.17;;;;;;;;;;4998083;28;20026;-71
2022/12/07 11:51:06;;;;;;;7.25;1.02;;;;;;;;;;5000529;28;20351;-72
2022/12/07 11:53:53;;;;;;;5.72;0.93;;;;;;;;;;4998518;28;20056;-72
2022/12/07 11:56:23;;;;;;;6.32;1.67;;;;;;;;;;4995918;28;20117;-72
2022/12/07 11:58:57;;;;;;;4.45;2.13;;;;;;;;;;4999708;28;20033;-72
2022/12/07 12:01:23;;;;;;;7.35;1.73;;;;;;;;;;4996967;28;20045;-71
2022/12/07 12:03:54;;;;;;;3.88;0.90;;;;;;;;;;4996787;28;20108;-71
2022/12/07 12:06:21;;;;;;;9.52;1.13;;;;;;;;;;4994792;28;20076;-69
2022/12/07 12:08:47;;;;;;;5.70;1.30;;;;;;;;;;4996821;28;20034;-73
2022/12/07 12:11:32;;;;;;;20.85;9.63;;;;;;;;;;4997852;28;20034;-71
2022/12/07 12:14:04;;;;;;;6.53;1.02;;;;;;;;;;4997722;28;20117;-71
2022/12/07 12:16:30;;;;;;;8.38;1.10;;;;;;;;;;4997192;28;20096;-69
2022/12/07 12:19:25;;;;;;;5.72;1.38;;;;;;;;;;4999407;28;20029;-70
2022/12/07 12:22:01;;;;;;;1.70;0.52;;;;;;;;;;4989419;28;20045;-70
2022/12/07 12:24:29;;;;;;;5.47;1.33;;;;;;;;;;4989167;28;20038;-72
2022/12/07 12:27:07;;;;;;;6.53;1.13;;;;;;;;;;4998255;28;20058;-71
2022/12/07 12:29:37;;;;;;;5.10;1.13;;;;;;;;;;4995778;28;20122;-71
2022/12/07 12:32:23;;;;;;;3.05;0.70;;;;;;;;;;4996855;28;20438;-72
2022/12/07 12:35:20;;;;;;;4.10;0.80;;;;;;;;;;4991838;28;20081;-72
2022/12/07 12:37:47;;;;;;;2.55;0.82;;;;;;;;;;4993178;28;20101;-72
2022/12/07 12:40:16;;;;;;;4.50;2.35;;;;;;;;;;4992090;28;20045;-71
2022/12/07 12:42:47;;;;;;;3.17;0.63;;;;;;;;;;4992671;28;20149;-70
2022/12/07 12:45:19;;;;;;;3.72;0.55;;;;;;;;;;4995509;28;20129;-70
2022/12/07 12:47:57;;;;;;;3.17;0.70;;;;;;;;;;5000466;28;20022;-71
2022/12/07 12:50:25;;;;;;;4.60;1.05;;;;;;;;;;5000621;28;20121;-70
2022/12/07 12:52:54;;;;;;;5.57;0.88;;;;;;;;;;5010353;28;20026;-70
2022/12/07 12:55:23;;;;;;;6.65;1.48;;;;;;;;;;5011930;28;20057;-71
2022/12/07 12:58:09;;;;;;;3.53;0.80;;;;;;;;;;5011997;28;20034;-72
2022/12/07 13:00:35;;;;;;;3.10;0.77;;;;;;;;;;5018263;28;20033;-70
2022/12/07 13:03:01;;;;;;;3.40;0.73;;;;;;;;;;5016017;28;20030;-71
2022/12/07 13:05:28;;;;;;;4.97;0.77;;;;;;;;;;5009532;28;20061;-70
2022/12/07 13:07:59;;;;;;;3.45;0.80;;;;;;;;;;5022123;28;20065;-70
2022/12/07 13:10:32;;;;;;;3.45;0.90;;;;;;;;;;5011438;28;20033;-70
2022/12/07 13:13:04;;;;;;;3.22;0.88;;;;;;;;;;4998988;28;20451;-70
2022/12/07 13:15:43;;;;;;;5.50;1.08;;;;;;;;;;4996998;28;20117;-70
2022/12/07 13:18:25;;;;;;;6.68;1.77;;;;;;;;;;4987576;28;20061;-70
2022/12/07 13:20:51;;;;;;;5.18;1.08;;;;;;;;;;4994058;28;20034;-72
2022/12/07 13:23:22;;;;;;;5.97;0.80;;;;;;;;;;5006082;28;20108;-71
2022/12/07 13:25:52;;;;;;;4.15;0.80;;;;;;;;;;5005725;28;20030;-70
2022/12/07 13:28:19;;;;;;;5.65;1.13;;;;;;;;;;4976539;28;20061;-70
2022/12/07 13:31:11;;;;;;;3.60;1.42;;;;;;;;;;4998737;28;20043;-70
2022/12/07 13:33:37;;;;;;;6.15;1.25;;;;;;;;;;4945216;28;20042;-71
2022/12/07 13:36:03;;;;;;;8.15;0.85;;;;;;;;;;4992202;28;20038;-69
2022/12/07 13:38:33;;;;;;;4.80;1.13;;;;;;;;;;5000599;28;20038;-72
2022/12/07 13:41:13;;;;;;;5.57;1.10;;;;;;;;;;5005671;28;20760;-68
2022/12/07 13:44:00;;;;;;;7.18;1.00;;;;;;;;;;4996206;28;20144;-68
2022/12/07 13:46:31;;;;;;;8.25;1.20;;;;;;;;;;4999220;28;20034;-68
2022/12/07 13:48:57;;;;;;;5.05;1.00;;;;;;;;;;4981066;28;20053;-70
2022/12/07 13:51:25;;;;;;;5.95;1.15;;;;;;;;;;4977659;28;20046;-69
2022/12/07 13:54:02;;;;;;;5.65;0.90;;;;;;;;;;5002210;28;20029;-69
2022/12/07 13:56:39;;;;;;;4.43;1.05;;;;;;;;;;4983504;28;20022;-68
2022/12/07 13:59:16;;;;;;;6.38;0.85;;;;;;;;;;4985901;28;20034;-68
2022/12/07 14:01:43;;;;;;;9.15;3.33;;;;;;;;;;4991339;28;20030;-70
2022/12/07 14:04:19;;;;;;;2.90;1.40;;;;;;;;;;4992904;28;20082;-69
2022/12/07 14:06:50;;;;;;;4.18;1.63;;;;;;;;;;4990804;28;20039;-69
2022/12/07 14:09:16;;;;;;;5.43;0.80;;;;;;;;;;4993277;28;20094;-70
2022/12/07 14:11:42;;;;;;;4.82;0.75;;;;;;;;;;5004572;28;20046;-70
2022/12/07 14:14:12;;;;;;;4.07;0.80;;;;;;;;;;5011943;28;20025;-71
2022/12/07 14:16:39;;;;;;;2.88;0.50;;;;;;;;;;4996039;28;20034;-70
2022/12/07 14:19:06;;;;;;;5.70;0.75;;;;;;;;;;4994682;28;20030;-70
2022/12/07 14:21:33;;;;;;;4.53;1.13;;;;;;;;;;5020720;28;20462;-68
2022/12/07 14:24:17;;;;;;;19.58;8.40;;;;;;;;;;4996102;28;20026;-69
2022/12/07 14:26:44;;;;;;;22.60;9.80;;;;;;;;;;4984823;28;20050;-71
2022/12/07 14:29:26;;;;;;;4.35;1.58;;;;;;;;;;4996185;28;20045;-70
2022/12/07 14:31:52;;;;;;;10.45;1.95;;;;;;;;;;4995143;28;20045;-71
2022/12/07 14:34:20;;;;;;;5.07;1.30;;;;;;;;;;4998889;28;20029;-71
2022/12/07 14:36:46;;;;;;;7.97;0.93;;;;;;;;;;4992739;28;20053;-68
2022/12/07 14:39:12;;;;;;;4.03;0.88;;;;;;;;;;4993976;28;20474;-69
2022/12/07 14:41:50;;;;;;;10.85;1.23;;;;;;;;;;4993972;28;20407;-70
2022/12/07 14:44:16;;;;;;;11.60;2.28;;;;;;;;;;4998103;28;20097;-69
2022/12/07 14:46:42;;;;;;;1.75;0.40;;;;;;;;;;5000369;28;20037;-72
2022/12/07 14:49:08;;;;;;;4.18;0.95;;;;;;;;;;4999792;28;20038;-70
2022/12/07 14:51:36;;;;;;;4.35;0.70;;;;;;;;;;4994889;28;20038;-70
2022/12/07 14:54:04;;;;;;;4.68;0.73;;;;;;;;;;4997132;28;20044;-70